sensor_id;sensor_type;location;lat;lon;timestamp;pressure;altitude;pressure_sealevel;temperature;humidity
27425;BME280;15244;49.088;11.886;2023-10-08T00:04:12;96406.31;;;18.72;42.68
27425;BME280;15244;49.088;11.886;2023-10-08T00:09:13;96396.00;;;18.76;42.50
27425;BME280;15244;49.088;11.886;2023-10-08T00:14:17;96405.41;;;18.78;42.47
27425;BME280;15244;49.088;11.886;2023-10-08T00:19:22;96397.09;;;18.82;42.41
27425;BME280;15244;49.088;11.886;2023-10-08T00:24:25;96385.19;;;18.85;42.27
27425;BME280;15244;49.088;11.886;2023-10-08T00:29:28;96390.53;;;18.96;42.28
27425;BME280;15244;49.088;11.886;2023-10-08T00:34:33;96379.47;;;18.96;41.85
27425;BME280;15244;49.088;11.886;2023-10-08T00:39:37;96370.31;;;18.99;42.03
27425;BME280;15244;49.088;11.886;2023-10-08T00:44:41;96381.34;;;19.02;42.03
27425;BME280;15244;49.088;11.886;2023-10-08T00:49:55;96378.56;;;19.02;41.87
27425;BME280;15244;49.088;11.886;2023-10-08T00:55:09;96373.16;;;18.95;41.93
27425;BME280;15244;49.088;11.886;2023-10-08T01:00:12;96360.84;;;19.00;41.91
27425;BME280;15244;49.088;11.886;2023-10-08T01:05:25;96369.06;;;19.03;41.74
27425;BME280;15244;49.088;11.886;2023-10-08T01:10:39;96366.75;;;19.02;41.86
27425;BME280;15244;49.088;11.886;2023-10-08T01:15:44;96364.88;;;18.95;41.81
27425;BME280;15244;49.088;11.886;2023-10-08T01:20:50;96365.16;;;19.01;41.75
27425;BME280;15244;49.088;11.886;2023-10-08T01:25:54;96362.00;;;19.02;41.78
27425;BME280;15244;49.088;11.886;2023-10-08T01:31:25;96374.59;;;19.03;41.91
27425;BME280;15244;49.088;11.886;2023-10-08T01:36:27;96384.38;;;19.08;41.83
27425;BME280;15244;49.088;11.886;2023-10-08T01:41:29;96390.75;;;19.05;41.60
27425;BME280;15244;49.088;11.886;2023-10-08T01:46:31;96381.69;;;19.04;41.82
27425;BME280;15244;49.088;11.886;2023-10-08T01:51:34;96370.56;;;19.08;41.82
27425;BME280;15244;49.088;11.886;2023-10-08T01:56:41;96382.84;;;19.07;41.86
27425;BME280;15244;49.088;11.886;2023-10-08T02:01:44;96379.94;;;19.14;41.92
27425;BME280;15244;49.088;11.886;2023-10-08T02:06:47;96370.44;;;19.15;41.77
27425;BME280;15244;49.088;11.886;2023-10-08T02:11:49;96377.16;;;19.14;41.70
27425;BME280;15244;49.088;11.886;2023-10-08T02:16:55;96374.81;;;19.13;41.96
27425;BME280;15244;49.088;11.886;2023-10-08T02:21:58;96360.16;;;19.16;41.98
27425;BME280;15244;49.088;11.886;2023-10-08T02:26:59;96354.56;;;19.19;41.70
27425;BME280;15244;49.088;11.886;2023-10-08T02:32:01;96368.53;;;19.12;41.71
27425;BME280;15244;49.088;11.886;2023-10-08T02:37:03;96357.59;;;19.05;41.97
27425;BME280;15244;49.088;11.886;2023-10-08T02:42:04;96357.31;;;18.99;42.04
27425;BME280;15244;49.088;11.886;2023-10-08T02:47:12;96367.56;;;18.99;41.82
27425;BME280;15244;49.088;11.886;2023-10-08T02:52:14;96369.56;;;18.98;42.17
27425;BME280;15244;49.088;11.886;2023-10-08T02:57:17;96377.44;;;19.00;42.17
27425;BME280;15244;49.088;11.886;2023-10-08T03:02:18;96369.19;;;18.96;42.19
27425;BME280;15244;49.088;11.886;2023-10-08T03:07:22;96368.84;;;18.94;42.16
27425;BME280;15244;49.088;11.886;2023-10-08T03:12:25;96363.88;;;18.86;42.22
27425;BME280;15244;49.088;11.886;2023-10-08T03:17:28;96365.78;;;18.89;42.17
27425;BME280;15244;49.088;11.886;2023-10-08T03:22:31;96370.88;;;18.90;42.28
27425;BME280;15244;49.088;11.886;2023-10-08T03:27:35;96374.44;;;18.91;42.24
27425;BME280;15244;49.088;11.886;2023-10-08T03:32:43;96378.81;;;18.88;42.23
27425;BME280;15244;49.088;11.886;2023-10-08T03:37:54;96404.53;;;18.85;42.38
27425;BME280;15244;49.088;11.886;2023-10-08T03:43:16;96402.53;;;18.86;42.09
27425;BME280;15244;49.088;11.886;2023-10-08T03:48:36;96399.00;;;18.85;42.22
27425;BME280;15244;49.088;11.886;2023-10-08T03:53:39;96411.59;;;18.86;42.24
27425;BME280;15244;49.088;11.886;2023-10-08T03:58:58;96406.94;;;18.83;42.34
27425;BME280;15244;49.088;11.886;2023-10-08T04:04:02;96416.00;;;18.83;42.31
27425;BME280;15244;49.088;11.886;2023-10-08T04:09:05;96407.38;;;18.81;42.53
27425;BME280;15244;49.088;11.886;2023-10-08T04:14:10;96415.22;;;18.83;42.37
27425;BME280;15244;49.088;11.886;2023-10-08T04:19:12;96425.13;;;18.80;42.48
27425;BME280;15244;49.088;11.886;2023-10-08T04:24:14;96429.88;;;18.80;42.46
27425;BME280;15244;49.088;11.886;2023-10-08T04:29:16;96413.31;;;18.80;42.69
27425;BME280;15244;49.088;11.886;2023-10-08T04:34:23;96412.56;;;18.76;42.80
27425;BME280;15244;49.088;11.886;2023-10-08T04:39:25;96416.13;;;18.76;42.77
27425;BME280;15244;49.088;11.886;2023-10-08T04:44:37;96425.19;;;18.77;42.73
27425;BME280;15244;49.088;11.886;2023-10-08T04:49:42;96429.94;;;18.76;42.60
27425;BME280;15244;49.088;11.886;2023-10-08T04:54:47;96427.88;;;18.80;42.67
27425;BME280;15244;49.088;11.886;2023-10-08T04:59:53;96432.94;;;18.86;42.66
27425;BME280;15244;49.088;11.886;2023-10-08T05:04:59;96435.31;;;18.83;42.50
27425;BME280;15244;49.088;11.886;2023-10-08T05:10:14;96442.06;;;18.82;42.65
27425;BME280;15244;49.088;11.886;2023-10-08T05:15:25;96431.09;;;18.79;42.65
27425;BME280;15244;49.088;11.886;2023-10-08T05:20:35;96436.63;;;18.79;42.82
27425;BME280;15244;49.088;11.886;2023-10-08T05:25:53;96443.38;;;18.74;42.99
27425;BME280;15244;49.088;11.886;2023-10-08T05:31:07;96444.63;;;18.70;43.20
27425;BME280;15244;49.088;11.886;2023-10-08T05:36:17;96441.84;;;18.70;43.01
27425;BME280;15244;49.088;11.886;2023-10-08T05:41:30;96447.06;;;18.64;43.39
27425;BME280;15244;49.088;11.886;2023-10-08T05:46:52;96432.00;;;18.69;43.23
27425;BME280;15244;49.088;11.886;2023-10-08T05:51:57;96420.16;;;18.68;43.20
27425;BME280;15244;49.088;11.886;2023-10-08T05:57:15;96420.13;;;18.72;43.33
27425;BME280;15244;49.088;11.886;2023-10-08T06:02:37;96419.28;;;18.75;43.27
27425;BME280;15244;49.088;11.886;2023-10-08T06:08:01;96412.53;;;18.79;43.34
27425;BME280;15244;49.088;11.886;2023-10-08T06:13:14;96424.75;;;18.78;43.34
27425;BME280;15244;49.088;11.886;2023-10-08T06:18:32;96418.09;;;18.76;43.52
27425;BME280;15244;49.088;11.886;2023-10-08T06:23:37;96399.94;;;18.75;43.64
27425;BME280;15244;49.088;11.886;2023-10-08T06:28:42;96411.38;;;18.77;43.71
27425;BME280;15244;49.088;11.886;2023-10-08T06:33:44;96412.94;;;18.78;43.76
27425;BME280;15244;49.088;11.886;2023-10-08T06:38:46;96405.88;;;18.73;43.96
27425;BME280;15244;49.088;11.886;2023-10-08T06:43:51;96417.47;;;18.65;44.23
27425;BME280;15244;49.088;11.886;2023-10-08T06:49:06;96439.97;;;18.63;44.49
27425;BME280;15244;49.088;11.886;2023-10-08T06:54:14;96437.59;;;18.65;44.42
27425;BME280;15244;49.088;11.886;2023-10-08T06:59:18;96436.69;;;18.72;44.50
27425;BME280;15244;49.088;11.886;2023-10-08T07:04:23;96451.25;;;18.76;44.44
27425;BME280;15244;49.088;11.886;2023-10-08T07:09:25;96444.94;;;18.75;44.89
27425;BME280;15244;49.088;11.886;2023-10-08T07:14:31;96456.75;;;18.76;44.97
27425;BME280;15244;49.088;11.886;2023-10-08T07:19:33;96455.59;;;18.77;45.01
27425;BME280;15244;49.088;11.886;2023-10-08T07:24:34;96453.13;;;18.82;45.33
27425;BME280;15244;49.088;11.886;2023-10-08T07:29:36;96460.19;;;18.83;45.37
27425;BME280;15244;49.088;11.886;2023-10-08T07:34:38;96462.91;;;18.87;45.58
27425;BME280;15244;49.088;11.886;2023-10-08T07:39:40;96467.19;;;18.92;45.76
27425;BME280;15244;49.088;11.886;2023-10-08T07:44:49;96478.56;;;18.94;45.82
27425;BME280;15244;49.088;11.886;2023-10-08T07:49:56;96477.75;;;18.97;45.83
27425;BME280;15244;49.088;11.886;2023-10-08T07:54:57;96483.13;;;19.04;45.96
27425;BME280;15244;49.088;11.886;2023-10-08T08:00:00;96490.91;;;19.13;45.82
27425;BME280;15244;49.088;11.886;2023-10-08T08:05:20;96499.97;;;19.13;46.21
27425;BME280;15244;49.088;11.886;2023-10-08T08:10:22;96506.63;;;19.16;46.17
27425;BME280;15244;49.088;11.886;2023-10-08T08:15:25;96518.84;;;19.18;46.25
27425;BME280;15244;49.088;11.886;2023-10-08T08:20:29;96539.50;;;19.10;46.21
27425;BME280;15244;49.088;11.886;2023-10-08T08:25:41;96541.97;;;19.04;46.12
27425;BME280;15244;49.088;11.886;2023-10-08T08:31:18;96541.59;;;19.02;46.54
27425;BME280;15244;49.088;11.886;2023-10-08T08:36:21;96555.34;;;19.06;46.51
27425;BME280;15244;49.088;11.886;2023-10-08T08:41:23;96541.13;;;19.08;46.44
27425;BME280;15244;49.088;11.886;2023-10-08T08:46:28;96576.50;;;19.16;46.46
27425;BME280;15244;49.088;11.886;2023-10-08T08:51:31;96588.56;;;19.30;46.30
27425;BME280;15244;49.088;11.886;2023-10-08T08:56:34;96597.09;;;19.39;46.53
27425;BME280;15244;49.088;11.886;2023-10-08T09:01:39;96590.00;;;19.38;46.71
27425;BME280;15244;49.088;11.886;2023-10-08T09:06:41;96583.63;;;19.41;46.50
27425;BME280;15244;49.088;11.886;2023-10-08T09:11:43;96591.38;;;19.49;46.53
27425;BME280;15244;49.088;11.886;2023-10-08T09:16:44;96571.59;;;19.51;46.58
27425;BME280;15244;49.088;11.886;2023-10-08T09:22:18;96558.53;;;19.52;46.59
27425;BME280;15244;49.088;11.886;2023-10-08T09:27:21;96541.91;;;19.55;46.69
27425;BME280;15244;49.088;11.886;2023-10-08T09:32:25;96538.38;;;19.55;46.76
27425;BME280;15244;49.088;11.886;2023-10-08T09:37:27;96521.41;;;19.53;46.98
27425;BME280;15244;49.088;11.886;2023-10-08T09:42:29;96511.53;;;19.52;46.91
27425;BME280;15244;49.088;11.886;2023-10-08T09:47:38;96513.31;;;19.62;46.82
27425;BME280;15244;49.088;11.886;2023-10-08T09:53:07;96518.44;;;19.63;46.69
27425;BME280;15244;49.088;11.886;2023-10-08T09:58:08;96564.72;;;19.59;46.77
27425;BME280;15244;49.088;11.886;2023-10-08T10:03:15;96578.22;;;19.57;46.72
27425;BME280;15244;49.088;11.886;2023-10-08T10:08:19;96591.91;;;19.64;46.64
27425;BME280;15244;49.088;11.886;2023-10-08T10:13:49;96599.53;;;19.57;46.81
27425;BME280;15244;49.088;11.886;2023-10-08T10:18:55;96614.53;;;19.59;46.78
27425;BME280;15244;49.088;11.886;2023-10-08T10:23:59;96614.47;;;19.63;46.73
27425;BME280;15244;49.088;11.886;2023-10-08T10:34:08;96599.34;;;19.71;46.88
27425;BME280;15244;49.088;11.886;2023-10-08T10:39:10;96617.00;;;19.77;47.03
27425;BME280;15244;49.088;11.886;2023-10-08T10:44:18;96620.09;;;19.83;47.17
27425;BME280;15244;49.088;11.886;2023-10-08T10:49:21;96640.44;;;19.92;47.14
27425;BME280;15244;49.088;11.886;2023-10-08T10:54:24;96622.56;;;19.97;47.12
27425;BME280;15244;49.088;11.886;2023-10-08T10:59:26;96614.50;;;20.06;47.05
27425;BME280;15244;49.088;11.886;2023-10-08T11:04:28;96616.78;;;20.11;46.86
27425;BME280;15244;49.088;11.886;2023-10-08T11:09:31;96605.13;;;20.20;46.92
27425;BME280;15244;49.088;11.886;2023-10-08T11:14:40;96598.31;;;20.25;46.93
27425;BME280;15244;49.088;11.886;2023-10-08T11:19:43;96603.31;;;20.33;46.79
27425;BME280;15244;49.088;11.886;2023-10-08T11:24:48;96599.53;;;20.44;46.94
27425;BME280;15244;49.088;11.886;2023-10-08T11:29:51;96605.22;;;20.37;46.87
27425;BME280;15244;49.088;11.886;2023-10-08T11:34:59;96602.81;;;20.39;46.68
27425;BME280;15244;49.088;11.886;2023-10-08T11:40:02;96609.03;;;20.43;46.88
27425;BME280;15244;49.088;11.886;2023-10-08T11:45:18;96618.47;;;20.45;46.95
27425;BME280;15244;49.088;11.886;2023-10-08T11:50:22;96617.22;;;20.50;46.89
27425;BME280;15244;49.088;11.886;2023-10-08T11:55:33;96599.34;;;20.54;46.95
27425;BME280;15244;49.088;11.886;2023-10-08T12:00:41;96587.66;;;20.63;46.81
27425;BME280;15244;49.088;11.886;2023-10-08T12:05:48;96581.56;;;20.72;46.77
27425;BME280;15244;49.088;11.886;2023-10-08T12:10:51;96616.34;;;20.73;47.07
27425;BME280;15244;49.088;11.886;2023-10-08T12:15:56;96629.53;;;20.69;46.99
27425;BME280;15244;49.088;11.886;2023-10-08T12:21:08;96636.63;;;20.70;46.63
27425;BME280;15244;49.088;11.886;2023-10-08T12:26:17;96642.50;;;20.72;47.14
27425;BME280;15244;49.088;11.886;2023-10-08T12:31:21;96645.19;;;20.75;46.85
27425;BME280;15244;49.088;11.886;2023-10-08T12:36:26;96645.66;;;20.74;46.95
27425;BME280;15244;49.088;11.886;2023-10-08T12:41:34;96634.97;;;20.72;47.27
27425;BME280;15244;49.088;11.886;2023-10-08T12:46:40;96622.97;;;20.79;47.15
27425;BME280;15244;49.088;11.886;2023-10-08T12:51:45;96612.78;;;20.92;46.99
27425;BME280;15244;49.088;11.886;2023-10-08T12:56:47;96588.81;;;21.02;47.28
27425;BME280;15244;49.088;11.886;2023-10-08T13:01:56;96588.28;;;21.07;47.49
27425;BME280;15244;49.088;11.886;2023-10-08T13:06:58;96607.06;;;21.16;47.33
27425;BME280;15244;49.088;11.886;2023-10-08T13:12:03;96609.94;;;21.12;47.34
27425;BME280;15244;49.088;11.886;2023-10-08T13:17:06;96618.16;;;21.16;47.21
27425;BME280;15244;49.088;11.886;2023-10-08T13:22:12;96618.44;;;21.21;47.23
27425;BME280;15244;49.088;11.886;2023-10-08T13:27:21;96620.06;;;21.19;47.10
27425;BME280;15244;49.088;11.886;2023-10-08T13:32:25;96622.44;;;21.20;47.06
27425;BME280;15244;49.088;11.886;2023-10-08T13:37:27;96608.22;;;21.18;46.81
27425;BME280;15244;49.088;11.886;2023-10-08T13:42:29;96612.09;;;21.21;46.90
27425;BME280;15244;49.088;11.886;2023-10-08T13:47:30;96617.41;;;21.32;47.03
27425;BME280;15244;49.088;11.886;2023-10-08T13:52:35;96616.75;;;21.44;47.08
27425;BME280;15244;49.088;11.886;2023-10-08T13:57:40;96628.44;;;21.52;46.89
27425;BME280;15244;49.088;11.886;2023-10-08T14:02:46;96630.63;;;21.60;47.10
27425;BME280;15244;49.088;11.886;2023-10-08T14:07:52;96624.19;;;21.63;46.95
27425;BME280;15244;49.088;11.886;2023-10-08T14:12:54;96612.66;;;21.65;47.05
27425;BME280;15244;49.088;11.886;2023-10-08T14:17:56;96611.34;;;21.70;46.59
27425;BME280;15244;49.088;11.886;2023-10-08T14:23:00;96610.16;;;21.71;46.45
27425;BME280;15244;49.088;11.886;2023-10-08T14:28:04;96611.53;;;21.62;46.49
27425;BME280;15244;49.088;11.886;2023-10-08T14:33:09;96610.59;;;21.53;46.66
27425;BME280;15244;49.088;11.886;2023-10-08T14:38:15;96613.13;;;21.47;46.54
27425;BME280;15244;49.088;11.886;2023-10-08T14:43:35;96611.63;;;21.42;46.43
27425;BME280;15244;49.088;11.886;2023-10-08T14:48:39;96609.53;;;21.47;46.74
27425;BME280;15244;49.088;11.886;2023-10-08T14:53:42;96621.44;;;21.47;46.67
27425;BME280;15244;49.088;11.886;2023-10-08T14:58:44;96627.25;;;21.53;46.55
27425;BME280;15244;49.088;11.886;2023-10-08T15:03:46;96621.16;;;21.58;46.77
27425;BME280;15244;49.088;11.886;2023-10-08T15:08:48;96623.41;;;21.63;46.33
27425;BME280;15244;49.088;11.886;2023-10-08T15:13:51;96617.88;;;21.63;46.37
27425;BME280;15244;49.088;11.886;2023-10-08T15:18:55;96612.41;;;21.59;46.22
27425;BME280;15244;49.088;11.886;2023-10-08T15:23:58;96611.63;;;21.59;46.27
27425;BME280;15244;49.088;11.886;2023-10-08T15:29:06;96612.50;;;21.56;46.04
27425;BME280;15244;49.088;11.886;2023-10-08T15:34:08;96613.72;;;21.55;45.77
27425;BME280;15244;49.088;11.886;2023-10-08T15:39:29;96616.91;;;21.53;45.90
27425;BME280;15244;49.088;11.886;2023-10-08T15:44:30;96624.13;;;21.51;46.17
27425;BME280;15244;49.088;11.886;2023-10-08T15:49:32;96633.66;;;21.50;45.84
27425;BME280;15244;49.088;11.886;2023-10-08T15:54:34;96630.53;;;21.48;45.92
27425;BME280;15244;49.088;11.886;2023-10-08T15:59:36;96627.84;;;21.44;45.81
27425;BME280;15244;49.088;11.886;2023-10-08T16:04:38;96621.16;;;21.41;45.82
27425;BME280;15244;49.088;11.886;2023-10-08T16:09:40;96618.44;;;21.38;45.88
27425;BME280;15244;49.088;11.886;2023-10-08T16:14:45;96618.97;;;21.33;45.71
27425;BME280;15244;49.088;11.886;2023-10-08T16:19:47;96635.78;;;21.26;45.57
27425;BME280;15244;49.088;11.886;2023-10-08T16:24:48;96653.34;;;21.19;45.58
27425;BME280;15244;49.088;11.886;2023-10-08T16:29:50;96651.19;;;21.10;45.50
27425;BME280;15244;49.088;11.886;2023-10-08T16:34:52;96664.84;;;21.01;45.45
27425;BME280;15244;49.088;11.886;2023-10-08T16:39:54;96670.97;;;20.92;45.04
27425;BME280;15244;49.088;11.886;2023-10-08T16:44:58;96674.00;;;20.82;45.39
27425;BME280;15244;49.088;11.886;2023-10-08T16:50:00;96677.75;;;20.71;45.11
27425;BME280;15244;49.088;11.886;2023-10-08T16:55:03;96680.31;;;20.62;45.19
27425;BME280;15244;49.088;11.886;2023-10-08T17:00:05;96689.59;;;20.52;45.39
27425;BME280;15244;49.088;11.886;2023-10-08T17:05:13;96686.31;;;20.37;45.22
27425;BME280;15244;49.088;11.886;2023-10-08T17:10:16;96687.22;;;20.30;45.46
27425;BME280;15244;49.088;11.886;2023-10-08T17:15:18;96682.25;;;20.22;45.49
27425;BME280;15244;49.088;11.886;2023-10-08T17:20:20;96689.91;;;20.14;45.30
27425;BME280;15244;49.088;11.886;2023-10-08T17:25:24;96691.25;;;20.06;45.55
27425;BME280;15244;49.088;11.886;2023-10-08T17:30:26;96694.91;;;19.99;45.63
27425;BME280;15244;49.088;11.886;2023-10-08T17:35:28;96697.78;;;19.92;45.67
27425;BME280;15244;49.088;11.886;2023-10-08T17:40:31;96682.50;;;19.84;45.71
27425;BME280;15244;49.088;11.886;2023-10-08T17:45:34;96685.75;;;19.79;45.87
27425;BME280;15244;49.088;11.886;2023-10-08T17:50:42;96683.53;;;19.70;45.86
27425;BME280;15244;49.088;11.886;2023-10-08T17:55:46;96689.94;;;19.63;45.96
27425;BME280;15244;49.088;11.886;2023-10-08T18:00:48;96695.56;;;19.56;45.94
27425;BME280;15244;49.088;11.886;2023-10-08T18:05:49;96702.00;;;19.49;45.99
27425;BME280;15244;49.088;11.886;2023-10-08T18:10:55;96697.78;;;19.41;46.00
27425;BME280;15244;49.088;11.886;2023-10-08T18:16:02;96710.91;;;19.34;46.08
27425;BME280;15244;49.088;11.886;2023-10-08T18:21:06;96714.59;;;19.27;46.29
27425;BME280;15244;49.088;11.886;2023-10-08T18:26:11;96719.38;;;19.23;46.45
27425;BME280;15244;49.088;11.886;2023-10-08T18:31:13;96704.81;;;19.19;46.47
27425;BME280;15244;49.088;11.886;2023-10-08T18:36:19;96690.28;;;19.15;46.60
27425;BME280;15244;49.088;11.886;2023-10-08T18:41:21;96706.13;;;19.11;46.57
27425;BME280;15244;49.088;11.886;2023-10-08T18:46:25;96682.47;;;19.06;46.77
27425;BME280;15244;49.088;11.886;2023-10-08T18:51:27;96697.91;;;19.03;46.91
27425;BME280;15244;49.088;11.886;2023-10-08T18:56:29;96684.56;;;18.98;46.91
27425;BME280;15244;49.088;11.886;2023-10-08T19:01:30;96689.72;;;18.96;46.96
27425;BME280;15244;49.088;11.886;2023-10-08T19:06:33;96677.16;;;18.92;47.10
27425;BME280;15244;49.088;11.886;2023-10-08T19:11:34;96672.44;;;18.89;47.33
27425;BME280;15244;49.088;11.886;2023-10-08T19:16:36;96669.75;;;18.85;47.26
27425;BME280;15244;49.088;11.886;2023-10-08T19:21:38;96662.28;;;18.82;47.31
27425;BME280;15244;49.088;11.886;2023-10-08T19:26:42;96659.16;;;18.80;47.46
27425;BME280;15244;49.088;11.886;2023-10-08T19:31:43;96663.16;;;18.75;47.34
27425;BME280;15244;49.088;11.886;2023-10-08T19:36:47;96648.16;;;18.73;47.41
27425;BME280;15244;49.088;11.886;2023-10-08T19:41:50;96646.25;;;18.70;47.61
27425;BME280;15244;49.088;11.886;2023-10-08T19:46:51;96650.25;;;18.65;47.58
27425;BME280;15244;49.088;11.886;2023-10-08T19:51:53;96664.09;;;18.61;47.60
27425;BME280;15244;49.088;11.886;2023-10-08T19:56:54;96665.75;;;18.55;47.38
27425;BME280;15244;49.088;11.886;2023-10-08T20:01:57;96655.59;;;18.49;47.71
27425;BME280;15244;49.088;11.886;2023-10-08T20:06:59;96656.81;;;18.44;47.88
27425;BME280;15244;49.088;11.886;2023-10-08T20:12:00;96658.44;;;18.41;48.00
27425;BME280;15244;49.088;11.886;2023-10-08T20:17:02;96656.06;;;18.40;48.13
27425;BME280;15244;49.088;11.886;2023-10-08T20:22:10;96635.97;;;18.39;48.20
27425;BME280;15244;49.088;11.886;2023-10-08T20:27:12;96628.88;;;18.38;48.28
27425;BME280;15244;49.088;11.886;2023-10-08T20:32:16;96624.16;;;18.35;48.36
27425;BME280;15244;49.088;11.886;2023-10-08T20:37:19;96635.63;;;18.34;48.41
27425;BME280;15244;49.088;11.886;2023-10-08T20:42:22;96649.84;;;18.32;48.69
27425;BME280;15244;49.088;11.886;2023-10-08T20:47:25;96635.25;;;18.32;48.57
27425;BME280;15244;49.088;11.886;2023-10-08T20:52:28;96623.44;;;18.31;48.88
27425;BME280;15244;49.088;11.886;2023-10-08T20:57:31;96621.88;;;18.30;48.95
27425;BME280;15244;49.088;11.886;2023-10-08T21:02:34;96625.06;;;18.29;48.87
27425;BME280;15244;49.088;11.886;2023-10-08T21:07:36;96627.84;;;18.25;48.88
27425;BME280;15244;49.088;11.886;2023-10-08T21:12:42;96620.75;;;18.24;48.81
27425;BME280;15244;49.088;11.886;2023-10-08T21:17:44;96627.50;;;18.23;49.12
27425;BME280;15244;49.088;11.886;2023-10-08T21:22:51;96609.34;;;18.22;49.00
27425;BME280;15244;49.088;11.886;2023-10-08T21:27:54;96622.78;;;18.20;49.16
27425;BME280;15244;49.088;11.886;2023-10-08T21:32:58;96623.59;;;18.17;49.01
27425;BME280;15244;49.088;11.886;2023-10-08T21:38:02;96604.28;;;18.17;49.20
27425;BME280;15244;49.088;11.886;2023-10-08T21:43:04;96605.88;;;18.14;49.21
27425;BME280;15244;49.088;11.886;2023-10-08T21:48:06;96597.22;;;18.12;49.25
27425;BME280;15244;49.088;11.886;2023-10-08T21:53:08;96594.53;;;18.09;49.11
27425;BME280;15244;49.088;11.886;2023-10-08T21:58:09;96599.28;;;18.05;49.08
27425;BME280;15244;49.088;11.886;2023-10-08T22:03:11;96596.59;;;18.01;49.21
27425;BME280;15244;49.088;11.886;2023-10-08T22:08:15;96587.16;;;17.98;49.29
27425;BME280;15244;49.088;11.886;2023-10-08T22:13:17;96582.47;;;17.95;49.36
27425;BME280;15244;49.088;11.886;2023-10-08T22:18:21;96571.06;;;17.93;49.49
27425;BME280;15244;49.088;11.886;2023-10-08T22:23:30;96567.91;;;17.91;49.54
27425;BME280;15244;49.088;11.886;2023-10-08T22:28:36;96560.47;;;17.88;49.66
27425;BME280;15244;49.088;11.886;2023-10-08T22:33:40;96550.66;;;17.84;49.59
27425;BME280;15244;49.088;11.886;2023-10-08T22:38:42;96550.28;;;17.82;49.42
27425;BME280;15244;49.088;11.886;2023-10-08T22:43:49;96538.91;;;17.76;49.64
27425;BME280;15244;49.088;11.886;2023-10-08T22:48:55;96544.88;;;17.71;49.81
27425;BME280;15244;49.088;11.886;2023-10-08T22:54:05;96542.16;;;17.67;49.76
27425;BME280;15244;49.088;11.886;2023-10-08T22:59:09;96535.47;;;17.65;49.96
27425;BME280;15244;49.088;11.886;2023-10-08T23:04:17;96524.06;;;17.63;50.04
27425;BME280;15244;49.088;11.886;2023-10-08T23:09:20;96530.81;;;17.58;49.85
27425;BME280;15244;49.088;11.886;2023-10-08T23:14:27;96515.09;;;17.55;50.01
27425;BME280;15244;49.088;11.886;2023-10-08T23:19:29;96506.44;;;17.53;50.07
27425;BME280;15244;49.088;11.886;2023-10-08T23:24:33;96498.56;;;17.51;50.19
27425;BME280;15244;49.088;11.886;2023-10-08T23:29:35;96480.09;;;17.48;50.13
27425;BME280;15244;49.088;11.886;2023-10-08T23:34:36;96471.47;;;17.46;50.28
27425;BME280;15244;49.088;11.886;2023-10-08T23:39:39;96458.50;;;17.43;50.38
27425;BME280;15244;49.088;11.886;2023-10-08T23:44:40;96461.31;;;17.40;50.54
27425;BME280;15244;49.088;11.886;2023-10-08T23:49:49;96447.19;;;17.34;50.94
27425;BME280;15244;49.088;11.886;2023-10-08T23:55:11;96450.34;;;17.32;50.97
